Aérodrome :
LOGIN :

S'inscrire | Disclaimer

   EN    FR    IT 

 










Légende :    VFR   VFR Marginal   IFR   IFR Intensif   IFR Très Intensif
Visi : 
Plafond : 
>= 8 km
>= 3000ft
5 à 8 km
1000 à 3000 ft
1500m à 5 km
500 à 1000 ft
800 à 1500m
200 à 500 ft
< 800m
< 200 ft
Symboles :   Orages  Brouillard  Fortes neiges  Fortes précipitations  Vent > 20 kt
SIGMETs :   Divers  Orages  Givrage  Turbulence  Onde Orograph.  Cendres Volcan.






- Altitude de l'aérodrome : 863 ft
- Code IATA : ZAZ


LEZG - Zaragoza Aragon

DERNIER METAR :
  • 020230Z 30022G34KT 9999 FEW045 09/01 Q1015

METARs EXPIRÉS :
  • 020200Z 28017KT 9999 SCT045 09/03 Q1016
  • 020130Z 28016KT 250V310 9999 BKN045 10/05 Q1016
  • 020100Z 29016KT 9999 BKN045 10/05 Q1016
  • 020030Z 29020KT 9999 SCT040 10/06 Q1016
  • 020000Z 30020KT 270V330 9999 SCT040 11/05 Q1016
  • 012330Z 29020G31KT 260V320 9999 BKN040 11/05 Q1016

TAF AMD TAF LEZG
Valide du 02 à 00h jusqu'au 03 à 00h UTC


020012Z 0200/0224 30020KT 9999 FEW080 TX11/0213Z TN04/0206Z
TEMPO 0201/0218 30025G35KT



MET'MAP, la Météo Aéronautique d'un coup d'oeil ! - Copyright ORBIFLY Décembre 2007 - Disclaimer

ORBIFLY MET'MAP TEAM :

Programmation & Développement : Alexandra Zaïnal
Sur une idée originale de : Baudouin d'Aumeries
Assistance à la programmation : Marc-Olivier Méhu
Soutien technique & logistique : Manuel Goepfert

Contact : metmap@orbifly.com




SOURCES & CREDITS :

   NOAA